地図

経路データ

SID SEASON NUMBER BASIN SUBBASIN NAME ISO_TIME NATURE LAT LON WMO_WIND WMO_PRES WMO_AGENCY TRACK_TYPE DIST2LAND LANDFALL IFLAG USA_AGENCY USA_ATCF_ID USA_LAT USA_LON USA_RECORD USA_STATUS USA_WIND USA_PRES USA_SSHS USA_R34_NE USA_R34_SE USA_R34_SW USA_R34_NW USA_R50_NE USA_R50_SE USA_R50_SW USA_R50_NW USA_R64_NE USA_R64_SE USA_R64_SW USA_R64_NW USA_POCI USA_ROCI USA_RMW USA_EYE TOKYO_LAT TOKYO_LON TOKYO_GRADE TOKYO_WIND TOKYO_PRES TOKYO_R50_DIR TOKYO_R50_LONG TOKYO_R50_SHORT TOKYO_R30_DIR TOKYO_R30_LONG TOKYO_R30_SHORT TOKYO_LAND CMA_LAT CMA_LON CMA_CAT CMA_WIND CMA_PRES HKO_LAT HKO_LON HKO_CAT HKO_WIND HKO_PRES NEWDELHI_LAT NEWDELHI_LON NEWDELHI_GRADE NEWDELHI_WIND NEWDELHI_PRES NEWDELHI_CI NEWDELHI_DP NEWDELHI_POCI REUNION_LAT REUNION_LON REUNION_TYPE REUNION_WIND REUNION_PRES REUNION_TNUM REUNION_CI REUNION_RMW REUNION_R34_NE REUNION_R34_SE REUNION_R34_SW REUNION_R34_NW REUNION_R50_NE REUNION_R50_SE REUNION_R50_SW REUNION_R50_NW REUNION_R64_NE REUNION_R64_SE REUNION_R64_SW REUNION_R64_NW BOM_LAT BOM_LON BOM_TYPE BOM_WIND BOM_PRES BOM_TNUM BOM_CI BOM_RMW BOM_R34_NE BOM_R34_SE BOM_R34_SW BOM_R34_NW BOM_R50_NE BOM_R50_SE BOM_R50_SW BOM_R50_NW BOM_R64_NE BOM_R64_SE BOM_R64_SW BOM_R64_NW BOM_ROCI BOM_POCI BOM_EYE BOM_POS_METHOD BOM_PRES_METHOD NADI_LAT NADI_LON NADI_CAT NADI_WIND NADI_PRES WELLINGTON_LAT WELLINGTON_LON WELLINGTON_WIND WELLINGTON_PRES DS824_LAT DS824_LON DS824_STAGE DS824_WIND DS824_PRES TD9636_LAT TD9636_LON TD9636_STAGE TD9636_WIND TD9636_PRES TD9635_LAT TD9635_LON TD9635_WIND TD9635_PRES TD9635_ROCI NEUMANN_LAT NEUMANN_LON NEUMANN_CLASS NEUMANN_WIND NEUMANN_PRES MLC_LAT MLC_LON MLC_CLASS MLC_WIND MLC_PRES USA_GUST BOM_GUST BOM_GUST_PER REUNION_GUST REUNION_GUST_PER USA_SEAHGT USA_SEARAD_NE USA_SEARAD_SE USA_SEARAD_SW USA_SEARAD_NW STORM_SPEED STORM_DIR
1927294N14145 1927 60 WP MM NOT_NAMED 1927-10-20 21:00:00 NR 14.0000 144.800 main 1814 1814 __________O___ -1 14.0000 144.800 2 11 270
1927294N14145 1927 60 WP MM NOT_NAMED 1927-10-21 00:00:00 NR 13.9996 144.250 main 1821 1821 __________P___ -1 13.9996 144.250 2 11 270
1927294N14145 1927 60 WP MM NOT_NAMED 1927-10-21 03:00:00 NR 13.9988 143.710 main 1831 1831 __________P___ -1 13.9988 143.710 2 10 270
1927294N14145 1927 60 WP MM NOT_NAMED 1927-10-21 06:00:00 NR 13.9986 143.190 main 1832 1816 __________P___ -1 13.9986 143.190 2 10 270
1927294N14145 1927 60 WP MM NOT_NAMED 1927-10-21 09:00:00 NR 14.0000 142.700 main 1816 1801 __________O___ -1 14.0000 142.700 2 9 270
1927294N14145 1927 60 WP MM NOT_NAMED 1927-10-21 12:00:00 NR 14.0034 142.245 main 1797 1769 __________P___ -1 14.0034 142.245 2 9 270
1927294N14145 1927 60 WP MM NOT_NAMED 1927-10-21 15:00:00 NR 14.0065 141.808 main 1769 1727 __________P___ -1 14.0065 141.808 2 9 270
1927294N14145 1927 60 WP MM NOT_NAMED 1927-10-21 18:00:00 NR 14.0065 141.367 main 1727 1673 __________P___ -1 14.0065 141.367 2 9 270
1927294N14145 1927 60 WP MM NOT_NAMED 1927-10-21 21:00:00 NR 14.0000 140.900 main 1673 1620 __________O___ -1 14.0000 140.900 2 10 269
1927294N14145 1927 60 WP MM NOT_NAMED 1927-10-22 00:00:00 NR 13.9864 140.367 main 1620 1557 __________P___ -1 13.9864 140.367 2 11 268
1927294N14145 1927 60 WP MM NOT_NAMED 1927-10-22 03:00:00 NR 13.9652 139.808 main 1557 1501 __________P___ -1 13.9652 139.808 2 11 267
1927294N14145 1927 60 WP MM NOT_NAMED 1927-10-22 06:00:00 NR 13.9363 139.245 main 1491 1438 __________P___ -1 13.9363 139.245 2 11 267
1927294N14145 1927 60 WP MM NOT_NAMED 1927-10-22 09:00:00 NR 13.9000 138.700 main 1438 1385 __________O___ -1 13.9000 138.700 2 10 267
1927294N14145 1927 60 WP MM NOT_NAMED 1927-10-22 12:00:00 NR 13.8810 138.208 main 1385 1343 __________P___ -1 13.8810 138.208 2 9 267
1927294N14145 1927 60 WP MM NOT_NAMED 1927-10-22 15:00:00 NR 13.8518 137.736 main 1332 1288 __________P___ -1 13.8518 137.736 2 9 265
1927294N14145 1927 60 WP MM NOT_NAMED 1927-10-22 18:00:00 NR 13.7967 137.270 main 1288 1233 __________P___ -1 13.7967 137.270 2 9 261
1927294N14145 1927 60 WP MM NOT_NAMED 1927-10-22 21:00:00 NR 13.7000 136.800 main 1233 1177 __________O___ -1 13.7000 136.800 2 10 255
1927294N14145 1927 60 WP MM NOT_NAMED 1927-10-23 00:00:00 NR 13.5471 136.299 main 1175 1120 __________P___ -1 13.5471 136.299 2 10 250
1927294N14145 1927 60 WP MM NOT_NAMED 1927-10-23 03:00:00 NR 13.3524 135.792 main 1120 1060 __________P___ -1 13.3524 135.792 2 11 247
1927294N14145 1927 60 WP MM NOT_NAMED 1927-10-23 06:00:00 NR 13.1315 135.290 main 1060 1002 __________P___ -1 13.1315 135.290 2 11 245
1927294N14145 1927 60 WP MM NOT_NAMED 1927-10-23 09:00:00 NR 12.9000 134.800 main 1002 953 __________O___ -1 12.9000 134.800 2 10 241
1927294N14145 1927 60 WP MM NOT_NAMED 1927-10-23 12:00:00 NR 12.6288 134.356 main 953 896 __________P___ -1 12.6288 134.356 2 10 238
1927294N14145 1927 60 WP MM NOT_NAMED 1927-10-23 15:00:00 NR 12.3592 133.922 main 896 848 __________P___ -1 12.3592 133.922 2 10 240
1927294N14145 1927 60 WP MM NOT_NAMED 1927-10-23 18:00:00 NR 12.1350 133.477 main 848 793 __________P___ -1 12.1350 133.477 2 10 248
1927294N14145 1927 60 WP MM NOT_NAMED 1927-10-23 21:00:00 NR 12.0000 133.000 main 793 739 __________O___ -1 12.0000 133.000 2 10 261
1927294N14145 1927 60 WP MM NOT_NAMED 1927-10-24 00:00:00 NR 11.9741 132.457 main 739 674 __________P___ -1 11.9741 132.457 2 11 272
1927294N14145 1927 60 WP MM NOT_NAMED 1927-10-24 03:00:00 NR 12.0426 131.880 main 674 614 __________P___ -1 12.0426 131.880 2 12 281
1927294N14145 1927 60 WP MM NOT_NAMED 1927-10-24 06:00:00 NR 12.1897 131.288 main 614 556 __________P___ -1 12.1897 131.288 2 12 287
1927294N14145 1927 60 WP MM NOT_NAMED 1927-10-24 09:00:00 NR 12.4000 130.700 main 556 501 __________O___ -1 12.4000 130.700 4 13 292
1927294N14145 1927 60 WP MM NOT_NAMED 1927-10-24 12:00:00 NR 12.6591 130.075 main 502 441 __________P___ -1 12.6591 130.075 4 13 295
1927294N14145 1927 60 WP MM NOT_NAMED 1927-10-24 15:00:00 NR 12.9706 129.466 main 443 396 __________P___ -1 12.9706 129.466 4 13 300
1927294N14145 1927 60 WP MM NOT_NAMED 1927-10-24 18:00:00 NR 13.2967 128.925 main 388 361 __________P___ -1 13.2967 128.925 4 11 304
1927294N14145 1927 60 WP MM NOT_NAMED 1927-10-24 21:00:00 NR 13.6000 128.500 main 361 343 __________O___ -1 13.6000 128.500 4 8 305
1927294N14145 1927 60 WP MM NOT_NAMED 1927-10-25 00:00:00 NR 13.7590 128.236 main 343 333 __________P___ -1 13.7590 128.236 4 5 307
1927294N14145 1927 60 WP MM NOT_NAMED 1927-10-25 03:00:00 NR 13.9017 128.092 main 340 337 __________P___ -1 13.9017 128.092 4 4 329
1927294N14145 1927 60 WP MM NOT_NAMED 1927-10-25 06:00:00 NR 14.0936 128.027 main 344 344 __________P___ -1 14.0936 128.027 4 5 350
1927294N14145 1927 60 WP MM NOT_NAMED 1927-10-25 09:00:00 NR 14.4000 128.000 main 365 365 __________O___ -1 14.4000 128.000 4 8 354
1927294N14145 1927 60 WP MM NOT_NAMED 1927-10-25 12:00:00 NR 14.9110 127.938 main 393 393 __________P___ -1 14.9110 127.938 4 11 355
1927294N14145 1927 60 WP MM NOT_NAMED 1927-10-25 15:00:00 NR 15.5376 127.905 main 417 417 __________P___ -1 15.5376 127.905 4 13 359
1927294N14145 1927 60 WP MM NOT_NAMED 1927-10-25 18:00:00 NR 16.2204 127.894 main 455 455 __________P___ -1 16.2204 127.894 4 14 359
1927294N14145 1927 60 WP MM NOT_NAMED 1927-10-25 21:00:00 NR 16.9000 127.900 main 503 503 __________O___ -1 16.9000 127.900 4 12 359
1927294N14145 1927 60 WP MM NOT_NAMED 1927-10-26 00:00:00 NR 17.4124 127.887 main 541 541 __________P___ -1 17.4124 127.887 4 10 0
1927294N14145 1927 60 WP MM NOT_NAMED 1927-10-26 03:00:00 NR 17.9228 127.892 main 581 581 __________P___ -1 17.9228 127.892 4 11 2
1927294N14145 1927 60 WP MM NOT_NAMED 1927-10-26 06:00:00 NR 18.4967 127.925 main 590 590 __________P___ -1 18.4967 127.925 4 13 5
1927294N14145 1927 60 WP MM NOT_NAMED 1927-10-26 09:00:00 NR 19.2000 128.000 main 606 606 __________O___ -1 19.2000 128.000 4 17 4
1927294N14145 1927 60 WP MM NOT_NAMED 1927-10-26 12:00:00 NR 20.2099 128.056 main 641 641 __________P___ -1 20.2099 128.056 4 22 4
1927294N14145 1927 60 WP MM NOT_NAMED 1927-10-26 15:00:00 NR 21.3359 128.164 main 696 696 __________P___ -1 21.3359 128.164 4 23 7
1927294N14145 1927 60 WP MM NOT_NAMED 1927-10-26 18:00:00 NR 22.4440 128.365 main 702 689 __________P___ -1 22.4440 128.365 4 21 14
1927294N14145 1927 60 WP MM NOT_NAMED 1927-10-26 21:00:00 NR 23.4000 128.700 main 701 699 __________O___ -1 23.4000 128.700 4 18 26
1927294N14145 1927 60 WP MM NOT_NAMED 1927-10-27 00:00:00 NR 24.0599 129.217 main 734 731 __________P___ -1 24.0599 129.217 4 16 43
1927294N14145 1927 60 WP MM NOT_NAMED 1927-10-27 03:00:00 NR 24.5487 129.864 main 730 681 __________P___ -1 24.5487 129.864 4 15 55
1927294N14145 1927 60 WP MM NOT_NAMED 1927-10-27 06:00:00 NR 24.9130 130.580 main 681 649 __________P___ -1 24.9130 130.580 4 15 63
1927294N14145 1927 60 WP MM NOT_NAMED 1927-10-27 09:00:00 NR 25.2000 131.300 main 650 625 __________O___ -1 25.2000 131.300 4 14 66
1927294N14145 1927 60 WP MM NOT_NAMED 1927-10-27 12:00:00 NR 25.4730 131.955 main 627 617 __________P___ -1 25.4730 131.955 4 13 67
1927294N14145 1927 60 WP MM NOT_NAMED 1927-10-27 15:00:00 NR 25.6871 132.598 main 620 615 __________P___ -1 25.6871 132.598 4 12 70
1927294N14145 1927 60 WP MM NOT_NAMED 1927-10-27 18:00:00 NR 25.8825 133.217 main 619 619 __________P___ -1 25.8825 133.217 4 12 69
1927294N14145 1927 60 WP MM NOT_NAMED 1927-10-27 21:00:00 NR 26.1000 133.800 main 624 616 __________O___ -1 26.1000 133.800 4 11 62
1927294N14145 1927 60 WP MM NOT_NAMED 1927-10-28 00:00:00 NR 26.3938 134.293 main 621 614 __________P___ -1 26.3938 134.293 4 11 54
1927294N14145 1927 60 WP MM NOT_NAMED 1927-10-28 03:00:00 NR 26.7164 134.757 main 619 608 __________P___ -1 26.7164 134.757 4 11 52
1927294N14145 1927 60 WP MM NOT_NAMED 1927-10-28 06:00:00 NR 27.0560 135.243 main 604 604 __________P___ -1 27.0560 135.243 4 12 54
1927294N14145 1927 60 WP MM NOT_NAMED 1927-10-28 09:00:00 NR 27.4000 135.800 main 616 615 __________O___ -1 27.4000 135.800 4 13 58
1927294N14145 1927 60 WP MM NOT_NAMED 1927-10-28 12:00:00 NR 27.7540 136.495 main 628 606 __________P___ -1 27.7540 136.495 4 15 62
1927294N14145 1927 60 WP MM NOT_NAMED 1927-10-28 15:00:00 NR 28.1032 137.266 main 608 592 __________P___ -1 28.1032 137.266 4 16 64
1927294N14145 1927 60 WP MM NOT_NAMED 1927-10-28 18:00:00 NR 28.4256 138.079 main 599 592 __________P___ -1 28.4256 138.079 4 16 67
1927294N14145 1927 60 WP MM NOT_NAMED 1927-10-28 21:00:00 NR 28.7000 138.900 main 601 601 __________O___ -1 28.7000 138.900 4 13 72
1927294N14145 1927 60 WP MM NOT_NAMED 1927-10-29 00:00:00 NR 28.8345 139.484 main 622 618 __________P___ -1 28.8345 139.484 4 11 77
1927294N14145 1927 60 WP MM NOT_NAMED 1927-10-29 03:00:00 NR 28.9335 140.094 main 647 638 __________P___ -1 28.9335 140.094 4 12 79
1927294N14145 1927 60 WP MM NOT_NAMED 1927-10-29 06:00:00 NR 29.0667 140.882 main 644 644 __________P___ -1 29.0667 140.882 4 17 78
1927294N14145 1927 60 WP MM NOT_NAMED 1927-10-29 09:00:00 NR 29.3000 142.000 main 655 650 __________O___ -1 29.3000 142.000 2 24 75
1927294N14145 1927 60 WP MM NOT_NAMED 1927-10-29 12:00:00 NR 29.6745 143.566 main 675 675 __________P___ -1 29.6745 143.566 2 32 74
1927294N14145 1927 60 WP MM NOT_NAMED 1927-10-29 15:00:00 NR 30.1522 145.515 main 733 733 __________P___ -1 30.1522 145.515 2 37 74
1927294N14145 1927 60 WP MM NOT_NAMED 1927-10-29 18:00:00 NR 30.6776 147.734 main 841 841 __________P___ -1 30.6776 147.734 2 41 75
1927294N14145 1927 60 WP MM NOT_NAMED 1927-10-29 21:00:00 NR 31.2000 150.100 main 987 __________O___ -1 31.2000 150.100 2 42 76

デジタル台風データ・検索

IBTrACS Databaseについて

本データベースは、米国NOAAが公開する1842年以降の世界の熱帯低気圧のベストトラックデータアーカイブInternational Best Track Archive for Climate Stewardship (IBTrACS)を、ウェブで閲覧しやすい形式に変換したものです。

最終更新日:2021-10-21